Hunt, Texas
Current Conditions -  °F | °C
As of 10:15 AM on Thursday 18 Dec 2014 (Local Time) from KERV Reporting Station
Overcast Overcast  
Wind Chill: 58°   Ceiling: 500
Heat Index: 58°   Visibility: 10mi
Dew Point: 56°   Wind: 5mph
Humidity: 96%   Direction: 350°N
Pressure: 30.15"   Gusts: NA
Location:  30.07°N, 99.34°W
Report Text: KERV 181615Z AUTO 35004KT 10SM OVC005 14/14 A3015 RMK AO2 T01420136
Loading
Personal Weather Stations






























Interactive Weather Map New forecast layout! Learn more

10-Day Weather Forecast

Advertisements
Track Severe Weather on mobile